createdAt,value
2019-01-02T00:01:53.043Z,96103.08
2019-01-02T00:04:22.136Z,96110.55
2019-01-02T00:06:51.187Z,96112.88
2019-01-02T00:09:20.243Z,96100.31
2019-01-02T00:11:49.272Z,96093.59
2019-01-02T00:14:18.309Z,96095.18
2019-01-02T00:19:23.154Z,96098.61
2019-01-02T00:21:52.248Z,96107.86
2019-01-02T00:24:21.317Z,96106.06
2019-01-02T00:26:50.387Z,96116.98
2019-01-02T00:29:19.442Z,96115.36
2019-01-02T00:31:48.492Z,96122.86
2019-01-02T00:36:53.286Z,96135.58
2019-01-02T00:39:22.348Z,96144.53
2019-01-02T00:41:52.399Z,96144.99
2019-01-02T00:44:21.474Z,96136.37
2019-01-02T00:49:26.749Z,96137.48
2019-01-02T00:51:55.831Z,96150.83
2019-01-02T00:54:24.877Z,96151.33
2019-01-02T00:59:29.651Z,96147.19
2019-01-02T01:01:58.963Z,96140.81
2019-01-02T01:04:28.047Z,96151.83
2019-01-02T01:06:58.029Z,96153.81
2019-01-02T01:09:27.087Z,96158.41
2019-01-02T01:11:56.174Z,96164.95
2019-01-02T01:14:25.188Z,96171.12
2019-01-02T01:16:54.246Z,96165.25
2019-01-02T01:19:23.362Z,96173.25
2019-01-02T01:24:28.500Z,96176.77
2019-01-02T01:26:57.561Z,96174.51
2019-01-02T01:29:26.591Z,96152.74
2019-01-02T01:31:55.645Z,96171.02
2019-01-02T01:34:24.719Z,96174.05
2019-01-02T01:36:53.759Z,96169.27
2019-01-02T01:39:22.810Z,96166.83
2019-01-02T01:44:32.430Z,96158.53
2019-01-02T01:47:02.363Z,96162.02
2019-01-02T01:49:31.404Z,96158.89
2019-01-02T01:52:00.451Z,96167.91
2019-01-02T01:54:29.509Z,96168.70
2019-01-02T01:57:00.512Z,96170.59
2019-01-02T01:59:30.547Z,96163.91
2019-01-02T02:01:59.739Z,96171.78
2019-01-02T02:04:29.741Z,96169.41
2019-01-02T02:06:58.784Z,96169.22
2019-01-02T02:09:27.844Z,96182.39
2019-01-02T02:11:56.898Z,96188.84
2019-01-02T02:14:25.942Z,96195.28
2019-01-02T02:16:54.989Z,96196.27
2019-01-02T02:19:24.581Z,96203.16
2019-01-02T02:24:29.310Z,96196.37
2019-01-02T02:26:58.440Z,96200.12
2019-01-02T02:29:29.001Z,96203.91
2019-01-02T02:34:33.320Z,96216.72
2019-01-02T02:37:02.394Z,96219.99
2019-01-02T02:39:32.403Z,96236.48
2019-01-02T02:42:05.768Z,96231.28
2019-01-02T02:44:34.815Z,96239.70
2019-01-02T02:47:04.804Z,96234.12
2019-01-02T02:49:33.852Z,96230.14
2019-01-02T02:52:03.924Z,96240.83
2019-01-02T02:54:33.882Z,96245.20
2019-01-02T02:57:08.475Z,96247.80
2019-01-02T02:59:37.526Z,96243.53
2019-01-02T03:02:06.702Z,96250.30
2019-01-02T03:04:35.799Z,96259.54
2019-01-02T03:07:04.853Z,96256.77
2019-01-02T03:09:33.915Z,96268.42
2019-01-02T03:14:23.194Z,96266.08
2019-01-02T03:16:52.252Z,96276.11
2019-01-02T03:19:30.566Z,96270.69
2019-01-02T03:22:11.754Z,96262.86
2019-01-02T03:24:41.175Z,96276.00
2019-01-02T03:27:11.262Z,96272.96
2019-01-02T03:29:40.302Z,96270.47
2019-01-02T03:32:09.434Z,96268.68
2019-01-02T03:34:38.482Z,96274.63
2019-01-02T03:37:08.499Z,96289.86
2019-01-02T03:39:37.557Z,96289.69
2019-01-02T03:42:06.591Z,96280.73
2019-01-02T03:44:35.657Z,96283.97
2019-01-02T03:47:04.697Z,96288.91
2019-01-02T03:49:33.731Z,96299.43
2019-01-02T03:52:02.784Z,96298.16
2019-01-02T03:54:33.781Z,96301.02
2019-01-02T03:57:02.808Z,96304.59
2019-01-02T03:59:31.858Z,96299.91
2019-01-02T04:02:01.824Z,96292.80
2019-01-02T04:04:35.669Z,96304.72
2019-01-02T04:07:05.459Z,96298.78
2019-01-02T04:12:14.229Z,96304.23
2019-01-02T04:14:43.303Z,96301.78
2019-01-02T04:17:12.352Z,96306.94
2019-01-02T04:19:42.466Z,96298.44
2019-01-02T04:22:16.246Z,96290.36
2019-01-02T04:24:45.315Z,96281.97
2019-01-02T04:29:50.359Z,96296.14
2019-01-02T04:32:19.425Z,96309.12
2019-01-02T04:34:48.469Z,96310.89
2019-01-02T04:39:53.367Z,96313.23
2019-01-02T04:42:23.374Z,96317.89
2019-01-02T04:44:52.448Z,96320.70
2019-01-02T04:47:22.430Z,96324.75
2019-01-02T04:50:03.920Z,96339.59
2019-01-02T04:52:32.964Z,96329.92
2019-01-02T04:55:01.981Z,96328.27
2019-01-02T04:57:31.052Z,96311.80
2019-01-02T05:00:00.304Z,96313.86
2019-01-02T05:02:29.384Z,96308.27
2019-01-02T05:04:58.454Z,96308.66
2019-01-02T05:07:27.605Z,96305.76
2019-01-02T05:09:56.651Z,96316.57
2019-01-02T05:12:25.761Z,96313.84
2019-01-02T05:14:55.184Z,96311.13
2019-01-02T05:17:24.417Z,96317.59
2019-01-02T05:19:53.609Z,96322.03
2019-01-02T05:22:23.703Z,96316.83
2019-01-02T05:24:52.798Z,96322.92
2019-01-02T05:27:21.845Z,96329.67
2019-01-02T05:29:52.819Z,96329.86
2019-01-02T05:32:21.870Z,96327.98
2019-01-02T05:34:50.923Z,96332.71
2019-01-02T05:37:19.980Z,96334.08
2019-01-02T05:39:49.036Z,96339.92
2019-01-02T05:42:18.096Z,96343.31
2019-01-02T05:44:48.189Z,96341.66
2019-01-02T05:47:17.234Z,96345.49
2019-01-02T05:49:46.327Z,96348.31
2019-01-02T05:52:15.355Z,96349.48
2019-01-02T06:03:04.841Z,96352.44
2019-01-02T06:05:48.926Z,96358.16
2019-01-02T06:08:18.910Z,96352.88
2019-01-02T06:10:48.923Z,96348.70
2019-01-02T06:13:17.987Z,96350.23
2019-01-02T06:15:48.047Z,96337.22
2019-01-02T06:18:18.014Z,96341.09
2019-01-02T06:20:47.071Z,96337.09
2019-01-02T06:23:16.634Z,96351.30
2019-01-02T06:25:46.119Z,96341.66
2019-01-02T06:28:15.181Z,96341.89
2019-01-02T06:30:44.233Z,96342.58
2019-01-02T06:33:13.286Z,96352.41
2019-01-02T06:35:42.320Z,96342.80
2019-01-02T06:38:11.387Z,96342.64
2019-01-02T06:40:40.415Z,96346.56
2019-01-02T06:43:10.404Z,96345.54
2019-01-02T06:45:39.449Z,96338.78
2019-01-02T06:48:08.500Z,96331.49
2019-01-02T06:50:37.549Z,96340.51
2019-01-02T06:53:06.605Z,96351.53
2019-01-02T06:55:35.638Z,96351.35
2019-01-02T06:58:04.667Z,96334.78
2019-01-02T07:00:33.730Z,96355.56
2019-01-02T07:03:02.803Z,96345.22
2019-01-02T07:05:31.883Z,96355.44
2019-01-02T07:08:00.934Z,96360.31
2019-01-02T07:10:29.983Z,96353.25
2019-01-02T07:12:59.028Z,96362.66
2019-01-02T07:15:33.944Z,96359.52
2019-01-02T07:18:02.979Z,96358.32
2019-01-02T07:20:33.045Z,96371.20
2019-01-02T07:23:02.155Z,96364.20
2019-01-02T07:25:31.231Z,96363.39
2019-01-02T07:30:37.934Z,96366.48
2019-01-02T07:33:07.015Z,96376.80
2019-01-02T07:35:54.318Z,96379.84
2019-01-02T07:44:37.879Z,96379.87
2019-01-02T07:47:21.498Z,96372.70
2019-01-02T07:53:01.767Z,96384.58
2019-01-02T07:55:35.240Z,96392.34
2019-01-02T07:58:15.899Z,96401.58
2019-01-02T08:15:19.206Z,96391.74
2019-01-02T08:17:52.190Z,96395.10
2019-01-02T08:28:53.530Z,96417.89
2019-01-02T08:43:13.625Z,96409.23
2019-01-02T08:51:22.568Z,96423.31
2019-01-02T09:00:12.868Z,96434.13
2019-01-02T09:02:52.655Z,96441.56
2019-01-02T09:08:12.965Z,96451.33
2019-01-02T09:10:51.181Z,96450.37
2019-01-02T09:13:33.787Z,96457.96
2019-01-02T09:19:28.570Z,96459.03
2019-01-02T09:28:09.173Z,96451.80
2019-01-02T09:31:01.709Z,96448.53
2019-01-02T09:33:52.161Z,96462.55
2019-01-02T09:39:53.722Z,96459.91
2019-01-02T09:42:49.111Z,96460.16
2019-01-02T09:54:29.071Z,96452.92
2019-01-02T10:12:07.892Z,96456.91
2019-01-02T10:14:48.528Z,96449.25
2019-01-02T10:23:09.107Z,96459.08
2019-01-02T10:25:48.807Z,96456.30
2019-01-02T10:28:41.292Z,96463.80
2019-01-02T10:31:23.091Z,96455.86
2019-01-02T10:45:42.755Z,96438.81
2019-01-02T10:48:19.295Z,96434.02
2019-01-02T10:50:59.808Z,96440.65
2019-01-02T11:08:14.081Z,96430.62
2019-01-02T11:10:44.073Z,96422.98
2019-01-02T11:16:27.559Z,96411.00
2019-01-02T11:22:15.941Z,96417.41
2019-01-02T11:25:03.347Z,96405.20
2019-01-02T11:33:17.980Z,96396.41
2019-01-02T11:39:25.760Z,96382.08
2019-01-02T11:41:57.376Z,96383.05
2019-01-02T11:47:02.360Z,96372.25
2019-01-02T11:52:07.254Z,96373.30
2019-01-02T11:54:37.400Z,96369.13
2019-01-02T11:57:06.431Z,96349.13
2019-01-02T11:59:35.493Z,96361.48
2019-01-02T12:02:06.819Z,96348.83
2019-01-02T12:04:36.223Z,96347.02
2019-01-02T12:07:07.567Z,96344.09
2019-01-02T12:09:36.995Z,96341.73
2019-01-02T12:12:06.043Z,96340.94
2019-01-02T12:14:35.138Z,96336.92
2019-01-02T12:17:05.662Z,96344.22
2019-01-02T12:19:45.756Z,96336.91
2019-01-02T12:22:24.261Z,96319.19
2019-01-02T12:24:53.691Z,96329.48
2019-01-02T12:27:22.882Z,96324.67
2019-01-02T12:29:51.928Z,96312.17
2019-01-02T12:32:20.964Z,96315.86
2019-01-02T12:37:27.631Z,96305.22
2019-01-02T12:40:10.333Z,96306.16
2019-01-02T12:42:46.706Z,96306.64
2019-01-02T12:45:15.746Z,96306.86
2019-01-02T12:47:44.803Z,96310.17
2019-01-02T12:50:22.369Z,96300.38
2019-01-02T12:55:27.811Z,96308.75
2019-01-02T12:57:56.858Z,96300.22
2019-01-02T13:00:25.915Z,96307.32
2019-01-02T13:17:38.086Z,96301.04
2019-01-02T13:20:17.060Z,96317.96
2019-01-02T13:25:45.364Z,96327.52
2019-01-02T13:31:14.198Z,96332.73
2019-01-02T13:34:01.772Z,96329.41
2019-01-02T13:42:39.877Z,96329.05
2019-01-02T13:45:16.591Z,96323.79
2019-01-02T13:50:43.131Z,96321.07
2019-01-02T13:55:48.986Z,96334.89
2019-01-02T13:58:18.040Z,96326.53
2019-01-02T14:00:47.141Z,96338.81
2019-01-02T14:03:16.171Z,96328.11
2019-01-02T14:05:45.241Z,96341.33
2019-01-02T14:10:49.525Z,96338.06
2019-01-02T14:13:18.572Z,96339.77
2019-01-02T14:15:47.633Z,96347.48
2019-01-02T14:18:16.736Z,96361.17
2019-01-02T14:20:45.824Z,96364.91
2019-01-02T14:23:14.838Z,96363.72
2019-01-02T14:25:43.891Z,96374.14
2019-01-02T14:28:12.946Z,96382.81
2019-01-02T14:30:42.002Z,96387.63
2019-01-02T14:33:12.317Z,96376.67
2019-01-02T14:35:42.792Z,96367.11
2019-01-02T14:40:49.574Z,96375.88
2019-01-02T14:43:18.762Z,96386.78
2019-01-02T14:45:47.806Z,96397.56
2019-01-02T14:48:16.855Z,96404.20
2019-01-02T14:50:45.913Z,96405.14
2019-01-02T14:55:55.427Z,96416.81
2019-01-02T14:58:25.617Z,96413.42
2019-01-02T15:00:54.794Z,96422.81
2019-01-02T15:03:23.838Z,96420.88
2019-01-02T15:05:52.878Z,96428.60
2019-01-02T15:08:35.498Z,96428.48
2019-01-02T15:13:55.052Z,96434.84
2019-01-02T15:16:24.696Z,96441.43
2019-01-02T15:18:53.761Z,96451.09
2019-01-02T15:21:22.802Z,96450.80
2019-01-02T15:23:51.846Z,96453.09
2019-01-02T15:26:20.890Z,96465.79
2019-01-02T15:28:50.803Z,96476.67
2019-01-02T15:31:20.834Z,96468.94
2019-01-02T15:33:50.836Z,96475.98
2019-01-02T15:36:19.893Z,96477.98
2019-01-02T15:38:49.059Z,96478.27
2019-01-02T15:41:19.075Z,96493.54
2019-01-02T15:43:48.209Z,96499.09
2019-01-02T15:46:17.258Z,96494.81
2019-01-02T15:48:46.309Z,96500.42
2019-01-02T15:51:15.366Z,96505.05
2019-01-02T15:53:44.427Z,96517.00
2019-01-02T15:56:14.391Z,96526.05
2019-01-02T15:58:43.496Z,96517.70
2019-01-02T16:01:12.539Z,96524.86
2019-01-02T16:03:41.592Z,96523.23
2019-01-02T16:06:11.610Z,96534.38
2019-01-02T16:08:40.665Z,96545.71
2019-01-02T16:11:09.749Z,96557.31
2019-01-02T16:13:38.919Z,96556.76
2019-01-02T16:16:07.975Z,96569.97
2019-01-02T16:18:37.031Z,96575.64
2019-01-02T16:21:06.092Z,96596.27
2019-01-02T16:23:35.160Z,96588.39
2019-01-02T16:26:05.237Z,96598.03
2019-01-02T16:28:34.299Z,96608.00
2019-01-02T16:31:03.363Z,96618.89
2019-01-02T16:33:33.368Z,96613.66
2019-01-02T16:36:02.420Z,96620.16
2019-01-02T16:38:31.560Z,96627.03
2019-01-02T16:41:00.981Z,96632.08
2019-01-02T16:43:32.075Z,96637.41
2019-01-02T16:46:01.175Z,96640.98
2019-01-02T16:51:05.973Z,96649.88
2019-01-02T16:53:36.002Z,96640.19
2019-01-02T16:56:05.102Z,96634.05
2019-01-02T16:58:34.441Z,96639.52
2019-01-02T17:01:03.512Z,96637.85
2019-01-02T17:03:33.587Z,96644.05
2019-01-02T17:06:02.696Z,96643.77
2019-01-02T17:08:31.854Z,96651.99
2019-01-02T17:11:00.912Z,96650.68
2019-01-02T17:13:29.987Z,96654.80
2019-01-02T17:15:59.047Z,96668.18
2019-01-02T17:18:30.123Z,96664.22
2019-01-02T17:20:59.190Z,96673.39
2019-01-02T17:23:29.338Z,96674.58
2019-01-02T17:25:58.395Z,96683.55
2019-01-02T17:28:27.518Z,96695.55
2019-01-02T17:30:56.562Z,96695.31
2019-01-02T17:33:25.631Z,96695.81
2019-01-02T17:35:55.013Z,96700.33
2019-01-02T17:41:01.066Z,96708.41
2019-01-02T17:43:30.234Z,96710.58
2019-01-02T17:46:00.345Z,96713.93
2019-01-02T17:48:29.573Z,96714.08
2019-01-02T17:50:58.729Z,96711.34
2019-01-02T17:53:27.771Z,96706.73
2019-01-02T17:55:56.955Z,96713.44
2019-01-02T17:58:31.883Z,96717.41
2019-01-02T18:01:04.009Z,96717.70
2019-01-02T18:03:34.929Z,96723.28
2019-01-02T18:06:11.090Z,96720.60
2019-01-02T18:08:35.611Z,96733.19
2019-01-02T18:11:04.695Z,96739.73
2019-01-02T18:13:33.812Z,96737.82
2019-01-02T18:16:07.902Z,96742.20
2019-01-02T18:18:37.037Z,96741.14
2019-01-02T18:21:06.193Z,96749.03
2019-01-02T18:23:35.252Z,96748.49
2019-01-02T18:26:04.307Z,96758.14
2019-01-02T18:28:33.385Z,96756.92
2019-01-02T18:31:02.431Z,96762.02
2019-01-02T18:33:31.511Z,96766.97
2019-01-02T18:36:01.625Z,96774.80
2019-01-02T18:38:30.734Z,96780.48
2019-01-02T18:40:59.808Z,96781.83
2019-01-02T18:43:28.951Z,96788.52
2019-01-02T18:45:58.043Z,96788.41
2019-01-02T18:48:27.096Z,96797.21
2019-01-02T18:50:56.692Z,96798.44
2019-01-02T18:53:27.100Z,96793.53
2019-01-02T18:55:58.851Z,96795.16
2019-01-02T18:58:30.512Z,96802.28
2019-01-02T19:00:59.696Z,96800.92
2019-01-02T19:03:30.535Z,96803.01
2019-01-02T19:06:02.726Z,96803.06
2019-01-02T19:08:33.776Z,96802.91
2019-01-02T19:13:45.120Z,96803.97
2019-01-02T19:16:21.576Z,96811.07
2019-01-02T19:18:47.854Z,96807.34
2019-01-02T19:21:17.978Z,96813.92
2019-01-02T19:23:47.690Z,96824.16
2019-01-02T19:26:20.369Z,96820.78
2019-01-02T19:31:28.113Z,96824.16
2019-01-02T19:33:58.278Z,96826.12
2019-01-02T19:36:27.335Z,96830.11
2019-01-02T19:38:56.422Z,96833.05
2019-01-02T19:41:25.516Z,96830.86
2019-01-02T19:44:01.219Z,96833.39
2019-01-02T19:46:30.254Z,96834.24
2019-01-02T19:48:59.330Z,96839.30
2019-01-02T19:51:28.393Z,96840.78
2019-01-02T19:53:57.688Z,96836.65
2019-01-02T19:56:27.094Z,96831.17
2019-01-02T19:58:57.387Z,96835.85
2019-01-02T20:01:33.738Z,96835.08
2019-01-02T20:04:11.082Z,96837.20
2019-01-02T20:06:47.140Z,96839.82
2019-01-02T20:09:23.389Z,96847.52
2019-01-02T20:11:59.404Z,96850.00
2019-01-02T20:14:35.061Z,96856.38
2019-01-02T20:17:06.512Z,96861.11
2019-01-02T20:19:37.858Z,96854.57
2019-01-02T20:22:07.269Z,96858.48
2019-01-02T20:24:40.090Z,96861.23
2019-01-02T20:27:17.392Z,96850.04
2019-01-02T20:29:48.137Z,96858.74
2019-01-02T20:32:18.112Z,96854.45
2019-01-02T20:34:48.371Z,96855.37
2019-01-02T20:37:20.810Z,96856.09
2019-01-02T20:39:50.586Z,96856.31
2019-01-02T20:42:22.912Z,96857.09
2019-01-02T20:44:52.592Z,96849.52
2019-01-02T20:47:22.644Z,96853.19
2019-01-02T20:49:57.206Z,96848.49
2019-01-02T20:52:29.005Z,96848.70
2019-01-02T20:54:58.960Z,96849.58
2019-01-02T20:57:29.563Z,96844.72
2019-01-02T21:00:04.986Z,96841.55
2019-01-02T21:02:35.352Z,96839.93
2019-01-02T21:05:05.934Z,96841.94
2019-01-02T21:07:38.431Z,96843.22
2019-01-02T21:10:10.583Z,96843.23
2019-01-02T21:12:40.280Z,96841.58
2019-01-02T21:15:10.373Z,96845.86
2019-01-02T21:17:40.974Z,96848.08
2019-01-02T21:20:11.095Z,96848.36
2019-01-02T21:22:41.236Z,96847.73
2019-01-02T21:25:10.336Z,96850.61
2019-01-02T21:27:39.400Z,96844.39
2019-01-02T21:30:09.449Z,96839.44
2019-01-02T21:32:38.650Z,96837.48
2019-01-02T21:35:07.780Z,96832.91
2019-01-02T21:37:36.883Z,96832.67
2019-01-02T21:40:05.955Z,96834.86
2019-01-02T21:42:35.044Z,96836.09
2019-01-02T21:45:04.343Z,96829.31
2019-01-02T21:50:09.933Z,96833.20
2019-01-02T21:52:39.135Z,96832.46
2019-01-02T21:55:13.239Z,96831.89
2019-01-02T21:57:46.117Z,96833.67
2019-01-02T22:00:15.204Z,96833.00
2019-01-02T22:02:45.220Z,96835.87
2019-01-02T22:05:14.302Z,96839.50
2019-01-02T22:07:43.410Z,96842.36
2019-01-02T22:10:13.345Z,96838.32
2019-01-02T22:12:42.478Z,96846.59
2019-01-02T22:15:12.506Z,96848.89
2019-01-02T22:20:18.907Z,96841.45
2019-01-02T22:22:47.983Z,96839.42
2019-01-02T22:25:17.224Z,96834.60
2019-01-02T22:27:46.283Z,96835.83
2019-01-02T22:30:15.460Z,96842.90
2019-01-02T22:32:44.513Z,96843.68
2019-01-02T22:35:14.661Z,96843.42
2019-01-02T22:37:43.743Z,96850.73
2019-01-02T22:40:12.839Z,96846.84
2019-01-02T22:42:41.894Z,96852.03
2019-01-02T22:45:11.047Z,96851.83
2019-01-02T22:47:40.149Z,96854.16
2019-01-02T22:50:09.225Z,96859.34
2019-01-02T22:52:38.299Z,96864.84
2019-01-02T22:55:08.321Z,96864.33
2019-01-02T22:57:38.455Z,96865.68
2019-01-02T23:00:07.535Z,96866.29
2019-01-02T23:02:37.547Z,96868.98
2019-01-02T23:05:12.074Z,96871.41
2019-01-02T23:07:46.623Z,96866.28
2019-01-02T23:10:15.726Z,96865.70
2019-01-02T23:15:48.147Z,96873.18
2019-01-02T23:18:35.491Z,96883.77
2019-01-02T23:21:10.019Z,96882.03
2019-01-02T23:26:42.432Z,96884.08
2019-01-02T23:29:21.504Z,96885.63
2019-01-02T23:32:08.652Z,96886.74
2019-01-02T23:37:16.993Z,96891.25
2019-01-02T23:42:28.807Z,96898.00
2019-01-02T23:47:59.934Z,96901.60
2019-01-02T23:53:11.435Z,96908.08
